sensor_id;sensor_type;location;lat;lon;timestamp;temperature;humidity
18189;DHT22;9219;50.396;8.546;2023-03-05T00:00:32;2.90;99.90
18189;DHT22;9219;50.396;8.546;2023-03-05T00:03:30;2.90;99.90
18189;DHT22;9219;50.396;8.546;2023-03-05T00:06:07;3.00;99.90
18189;DHT22;9219;50.396;8.546;2023-03-05T00:08:49;2.90;99.90
18189;DHT22;9219;50.396;8.546;2023-03-05T00:11:22;2.70;99.90
18189;DHT22;9219;50.396;8.546;2023-03-05T00:13:57;2.70;99.90
18189;DHT22;9219;50.396;8.546;2023-03-05T00:16:58;2.60;99.90
18189;DHT22;9219;50.396;8.546;2023-03-05T00:19:35;2.60;99.90
18189;DHT22;9219;50.396;8.546;2023-03-05T00:46:26;3.50;99.90
18189;DHT22;9219;50.396;8.546;2023-03-05T00:49:51;3.40;99.90
18189;DHT22;9219;50.396;8.546;2023-03-05T00:53:04;3.50;99.90
18189;DHT22;9219;50.396;8.546;2023-03-05T00:56:26;3.60;99.90
18189;DHT22;9219;50.396;8.546;2023-03-05T00:59:47;4.00;99.90
18189;DHT22;9219;50.396;8.546;2023-03-05T01:03:00;4.00;99.90
18189;DHT22;9219;50.396;8.546;2023-03-05T01:05:51;3.70;99.90
18189;DHT22;9219;50.396;8.546;2023-03-05T01:08:49;4.00;99.90
18189;DHT22;9219;50.396;8.546;2023-03-05T01:11:45;4.10;99.90
18189;DHT22;9219;50.396;8.546;2023-03-05T01:14:49;4.40;99.90
18189;DHT22;9219;50.396;8.546;2023-03-05T01:38:35;4.40;99.90
18189;DHT22;9219;50.396;8.546;2023-03-05T01:41:37;4.50;99.90
18189;DHT22;9219;50.396;8.546;2023-03-05T01:55:33;3.70;99.90
18189;DHT22;9219;50.396;8.546;2023-03-05T01:58:07;3.50;99.90
18189;DHT22;9219;50.396;8.546;2023-03-05T02:00:55;3.80;99.90
18189;DHT22;9219;50.396;8.546;2023-03-05T02:07:17;3.90;99.90
18189;DHT22;9219;50.396;8.546;2023-03-05T02:09:47;3.70;99.90
18189;DHT22;9219;50.396;8.546;2023-03-05T02:19:01;3.10;99.90
18189;DHT22;9219;50.396;8.546;2023-03-05T02:22:14;2.90;99.90
18189;DHT22;9219;50.396;8.546;2023-03-05T02:25:32;2.90;99.90
18189;DHT22;9219;50.396;8.546;2023-03-05T02:32:12;2.90;99.90
18189;DHT22;9219;50.396;8.546;2023-03-05T02:35:34;2.60;99.90
18189;DHT22;9219;50.396;8.546;2023-03-05T02:38:44;2.60;99.90
18189;DHT22;9219;50.396;8.546;2023-03-05T02:41:56;2.50;99.90
18189;DHT22;9219;50.396;8.546;2023-03-05T02:45:09;2.60;99.90
18189;DHT22;9219;50.396;8.546;2023-03-05T03:04:17;2.60;99.90
18189;DHT22;9219;50.396;8.546;2023-03-05T03:06:52;2.20;99.90
18189;DHT22;9219;50.396;8.546;2023-03-05T03:09:26;2.30;99.90
18189;DHT22;9219;50.396;8.546;2023-03-05T03:12:39;2.20;99.90
18189;DHT22;9219;50.396;8.546;2023-03-05T03:15:11;1.90;99.90
18189;DHT22;9219;50.396;8.546;2023-03-05T03:17:53;1.90;99.90
18189;DHT22;9219;50.396;8.546;2023-03-05T03:20:26;1.80;99.90
18189;DHT22;9219;50.396;8.546;2023-03-05T03:23:00;1.90;99.90
18189;DHT22;9219;50.396;8.546;2023-03-05T03:25:51;1.90;99.90
18189;DHT22;9219;50.396;8.546;2023-03-05T03:28:33;1.90;99.90
18189;DHT22;9219;50.396;8.546;2023-03-05T03:31:24;1.80;99.90
18189;DHT22;9219;50.396;8.546;2023-03-05T03:37:07;1.70;99.90
18189;DHT22;9219;50.396;8.546;2023-03-05T03:40:15;1.80;99.90
18189;DHT22;9219;50.396;8.546;2023-03-05T03:46:29;1.70;99.90
18189;DHT22;9219;50.396;8.546;2023-03-05T03:49:27;1.80;99.90
18189;DHT22;9219;50.396;8.546;2023-03-05T03:52:23;1.60;99.90
18189;DHT22;9219;50.396;8.546;2023-03-05T03:55:20;1.60;99.90
18189;DHT22;9219;50.396;8.546;2023-03-05T03:58:17;1.40;99.90
18189;DHT22;9219;50.396;8.546;2023-03-05T04:01:11;1.30;99.90
18189;DHT22;9219;50.396;8.546;2023-03-05T05:57:16;3.60;99.90
18189;DHT22;9219;50.396;8.546;2023-03-05T05:59:45;3.10;99.90
18189;DHT22;9219;50.396;8.546;2023-03-05T06:02:14;2.90;99.90
18189;DHT22;9219;50.396;8.546;2023-03-05T06:04:44;2.90;99.90
18189;DHT22;9219;50.396;8.546;2023-03-05T06:07:15;2.90;99.90
18189;DHT22;9219;50.396;8.546;2023-03-05T06:09:46;3.10;99.90
18189;DHT22;9219;50.396;8.546;2023-03-05T06:12:17;3.00;99.90
18189;DHT22;9219;50.396;8.546;2023-03-05T06:14:49;2.60;99.90
18189;DHT22;9219;50.396;8.546;2023-03-05T06:20:08;2.70;99.90
18189;DHT22;9219;50.396;8.546;2023-03-05T06:31:29;2.30;99.90
18189;DHT22;9219;50.396;8.546;2023-03-05T06:34:09;2.50;99.90
18189;DHT22;9219;50.396;8.546;2023-03-05T06:36:50;2.60;99.90
18189;DHT22;9219;50.396;8.546;2023-03-05T06:40:06;2.50;99.90
18189;DHT22;9219;50.396;8.546;2023-03-05T06:43:27;2.30;99.90
18189;DHT22;9219;50.396;8.546;2023-03-05T06:46:45;2.20;99.90
18189;DHT22;9219;50.396;8.546;2023-03-05T06:49:53;2.50;99.90
18189;DHT22;9219;50.396;8.546;2023-03-05T07:03:42;2.40;99.90
18189;DHT22;9219;50.396;8.546;2023-03-05T07:06:57;2.40;99.90
18189;DHT22;9219;50.396;8.546;2023-03-05T07:13:42;2.30;99.90
18189;DHT22;9219;50.396;8.546;2023-03-05T07:16:39;2.10;99.90
18189;DHT22;9219;50.396;8.546;2023-03-05T07:19:18;2.00;99.90
18189;DHT22;9219;50.396;8.546;2023-03-05T07:22:12;2.30;99.90
18189;DHT22;9219;50.396;8.546;2023-03-05T07:25:06;2.70;99.90
18189;DHT22;9219;50.396;8.546;2023-03-05T07:44:06;2.50;99.90
18189;DHT22;9219;50.396;8.546;2023-03-05T07:46:59;2.20;99.90
18189;DHT22;9219;50.396;8.546;2023-03-05T07:50:02;2.40;99.90
18189;DHT22;9219;50.396;8.546;2023-03-05T07:52:41;2.60;99.90
18189;DHT22;9219;50.396;8.546;2023-03-05T07:55:33;2.60;99.90
18189;DHT22;9219;50.396;8.546;2023-03-05T07:58:39;2.60;99.90
18189;DHT22;9219;50.396;8.546;2023-03-05T08:01:29;2.60;99.90
18189;DHT22;9219;50.396;8.546;2023-03-05T08:04:17;2.40;99.90
18189;DHT22;9219;50.396;8.546;2023-03-05T08:07:18;2.70;99.90
18189;DHT22;9219;50.396;8.546;2023-03-05T08:12:58;2.60;99.90
18189;DHT22;9219;50.396;8.546;2023-03-05T08:15:35;2.40;99.90
18189;DHT22;9219;50.396;8.546;2023-03-05T08:18:25;2.80;99.90
18189;DHT22;9219;50.396;8.546;2023-03-05T08:21:23;3.00;99.90
18189;DHT22;9219;50.396;8.546;2023-03-05T08:24:12;3.10;99.90
18189;DHT22;9219;50.396;8.546;2023-03-05T08:26:53;3.10;99.90
18189;DHT22;9219;50.396;8.546;2023-03-05T08:29:40;3.20;99.90
18189;DHT22;9219;50.396;8.546;2023-03-05T08:35:10;3.30;99.90
18189;DHT22;9219;50.396;8.546;2023-03-05T08:37:50;3.60;99.90
18189;DHT22;9219;50.396;8.546;2023-03-05T08:40:26;3.70;99.90
18189;DHT22;9219;50.396;8.546;2023-03-05T08:43:18;3.50;99.90
18189;DHT22;9219;50.396;8.546;2023-03-05T08:46:18;3.80;99.90
18189;DHT22;9219;50.396;8.546;2023-03-05T08:49:10;3.90;99.90
18189;DHT22;9219;50.396;8.546;2023-03-05T08:51:59;3.90;99.90
18189;DHT22;9219;50.396;8.546;2023-03-05T08:54:46;3.70;99.90
18189;DHT22;9219;50.396;8.546;2023-03-05T09:15:24;3.30;99.90
18189;DHT22;9219;50.396;8.546;2023-03-05T09:17:57;3.30;99.90
18189;DHT22;9219;50.396;8.546;2023-03-05T09:32:32;3.10;99.90
18189;DHT22;9219;50.396;8.546;2023-03-05T09:35:13;2.90;99.90
18189;DHT22;9219;50.396;8.546;2023-03-05T09:37:45;2.80;99.90
18189;DHT22;9219;50.396;8.546;2023-03-05T09:40:16;2.80;99.90
18189;DHT22;9219;50.396;8.546;2023-03-05T09:43:02;2.90;99.90
18189;DHT22;9219;50.396;8.546;2023-03-05T09:45:39;2.70;99.90
18189;DHT22;9219;50.396;8.546;2023-03-05T09:56:39;2.70;99.90
18189;DHT22;9219;50.396;8.546;2023-03-05T09:59:19;2.90;99.90
18189;DHT22;9219;50.396;8.546;2023-03-05T10:01:52;3.00;99.90
18189;DHT22;9219;50.396;8.546;2023-03-05T10:04:25;2.80;99.90
18189;DHT22;9219;50.396;8.546;2023-03-05T10:07:00;2.70;99.90
18189;DHT22;9219;50.396;8.546;2023-03-05T10:09:43;2.80;99.90
18189;DHT22;9219;50.396;8.546;2023-03-05T10:12:22;3.00;99.90
18189;DHT22;9219;50.396;8.546;2023-03-05T10:14:58;3.10;99.90
18189;DHT22;9219;50.396;8.546;2023-03-05T10:23:48;3.90;99.90
18189;DHT22;9219;50.396;8.546;2023-03-05T10:27:00;4.20;99.90
18189;DHT22;9219;50.396;8.546;2023-03-05T10:30:15;4.30;99.90
18189;DHT22;9219;50.396;8.546;2023-03-05T10:33:18;4.50;99.90
18189;DHT22;9219;50.396;8.546;2023-03-05T10:36:08;4.20;99.90
18189;DHT22;9219;50.396;8.546;2023-03-05T10:38:49;3.70;99.90
18189;DHT22;9219;50.396;8.546;2023-03-05T10:41:31;3.50;99.90
18189;DHT22;9219;50.396;8.546;2023-03-05T11:03:20;4.40;99.90
18189;DHT22;9219;50.396;8.546;2023-03-05T11:05:52;4.10;99.90
18189;DHT22;9219;50.396;8.546;2023-03-05T11:08:30;4.00;99.90
18189;DHT22;9219;50.396;8.546;2023-03-05T11:11:13;4.20;99.90
18189;DHT22;9219;50.396;8.546;2023-03-05T11:13:55;4.00;99.90
18189;DHT22;9219;50.396;8.546;2023-03-05T11:16:26;3.60;99.90
18189;DHT22;9219;50.396;8.546;2023-03-05T11:19:18;3.90;99.90
18189;DHT22;9219;50.396;8.546;2023-03-05T11:22:04;4.10;99.90
